Time;durP1;ratioP1;P1;durP2;ratioP2;P2;SDS_P1;SDS_P2;PMS_P1;PMS_P2;Temp;Humidity;BMP_temperature;BMP_pressure;BME280_temperature;BME280_humidity;BME280_pressure;Samples;Min_cycle;Max_cycle;Signal;HPM_P1;HPM_P2
2022/10/27 00:01:25;;;;;;;20.65;11.05;;;;;;;15.90;66.48;99575.34;4501664;31;20555;-94
2022/10/27 00:03:50;;;;;;;21.17;10.80;;;;;;;16.02;66.01;99579.00;4501630;31;20096;-93
2022/10/27 00:06:17;;;;;;;19.20;10.10;;;;;;;16.07;65.78;99576.91;4487402;31;20148;-94
2022/10/27 00:08:43;;;;;;;20.85;10.32;;;;;;;16.07;65.74;99576.91;4501470;31;20397;-94
2022/10/27 00:11:08;;;;;;;20.75;9.98;;;;;;;16.16;65.50;99578.09;4502059;31;20110;-94
2022/10/27 00:13:34;;;;;;;18.50;9.90;;;;;;;16.20;65.43;99589.41;4489411;31;20135;-94
2022/10/27 00:16:02;;;;;;;18.37;9.60;;;;;;;16.28;65.32;99582.63;4503876;31;20104;-93
2022/10/27 00:18:28;;;;;;;18.23;8.95;;;;;;;16.31;65.28;99586.91;4503665;31;20095;-94
2022/10/27 00:21:01;;;;;;;19.35;9.57;;;;;;;16.38;65.09;99587.31;4489412;31;20368;-93
2022/10/27 00:23:27;;;;;;;17.90;8.50;;;;;;;16.44;64.89;99584.28;4503673;31;20148;-94
2022/10/27 00:25:56;;;;;;;17.80;7.85;;;;;;;16.49;64.67;99577.69;4503637;31;20131;-94
2022/10/27 00:28:22;;;;;;;15.65;8.48;;;;;;;16.57;64.42;99585.16;4489292;31;20212;-94
2022/10/27 00:30:47;;;;;;;19.60;10.45;;;;;;;16.60;64.36;99579.63;4503641;31;20092;-94
2022/10/27 00:33:13;;;;;;;22.17;10.68;;;;;;;16.64;64.14;99582.94;4503593;31;20116;-94
2022/10/27 00:35:38;;;;;;;18.23;9.82;;;;;;;16.64;64.06;99585.62;4503530;31;20168;-88
2022/10/27 00:38:04;;;;;;;19.98;10.68;;;;;;;16.65;63.94;99593.50;4489383;31;20102;-89
2022/10/27 00:40:36;;;;;;;19.17;10.07;;;;;;;16.56;64.01;99591.44;4503802;31;20096;-86
2022/10/27 00:43:01;;;;;;;19.27;10.00;;;;;;;16.67;63.77;99598.72;4489537;31;20157;-86
2022/10/27 00:45:27;;;;;;;20.00;9.98;;;;;;;16.74;63.50;99596.50;4503828;31;20128;-86
2022/10/27 00:47:52;;;;;;;23.30;12.48;;;;;;;16.69;63.70;99605.63;4503721;31;20175;-86
2022/10/27 00:50:20;;;;;;;22.25;11.60;;;;;;;16.41;64.71;99597.78;4489146;31;20104;-87
2022/10/27 00:52:56;;;;;;;20.80;11.15;;;;;;;16.45;64.39;99593.97;4503898;31;20108;-86
2022/10/27 00:55:29;;;;;;;21.67;10.63;;;;;;;16.46;64.54;99595.69;4489447;31;20456;-84
2022/10/27 00:57:57;;;;;;;21.52;11.12;;;;;;;16.57;64.16;99603.78;4503709;31;20096;-84
2022/10/27 01:00:22;;;;;;;21.95;11.40;;;;;;;16.57;64.13;99609.09;4476184;31;20496;-84
2022/10/27 01:02:48;;;;;;;21.92;11.65;;;;;;;16.66;63.79;99607.66;4489322;31;20130;-85
2022/10/27 01:05:22;;;;;;;20.12;11.63;;;;;;;16.73;63.57;99606.28;4489079;31;20100;-86
2022/10/27 01:07:49;;;;;;;22.42;11.50;;;;;;;16.78;63.40;99606.81;4503465;31;20087;-86
2022/10/27 01:10:16;;;;;;;20.42;10.70;;;;;;;16.82;63.31;99602.16;4488840;31;20126;-87
2022/10/27 01:12:41;;;;;;;20.88;10.23;;;;;;;16.82;63.20;99594.19;4489156;31;20107;-87
2022/10/27 01:15:08;;;;;;;23.50;11.38;;;;;;;16.84;63.16;99605.56;4488948;31;20096;-86
2022/10/27 01:17:36;;;;;;;21.85;11.75;;;;;;;16.82;63.13;99611.00;4503407;31;20092;-86
2022/10/27 01:20:23;;;;;;;20.42;11.18;;;;;;;16.81;63.17;99613.75;4488860;31;20076;-86
2022/10/27 01:22:54;;;;;;;23.75;10.80;;;;;;;16.78;63.32;99612.13;4488452;31;20103;-85
2022/10/27 01:25:35;;;;;;;23.55;12.25;;;;;;;16.87;63.14;99614.22;4503466;31;20151;-84
2022/10/27 01:28:22;;;;;;;20.62;11.02;;;;;;;16.85;63.11;99609.97;4503189;31;20100;-84
2022/10/27 01:31:05;;;;;;;22.30;10.50;;;;;;;16.87;63.12;99616.03;4503231;31;20446;-84
2022/10/27 01:33:37;;;;;;;19.58;10.75;;;;;;;16.87;63.04;99621.34;4503365;31;20151;-84
2022/10/27 01:36:23;;;;;;;22.00;11.90;;;;;;;16.89;63.03;99628.28;4488987;31;20765;-84
2022/10/27 01:38:52;;;;;;;18.95;10.27;;;;;;;16.90;62.86;99624.66;4489256;31;20080;-84
2022/10/27 01:41:48;;;;;;;20.83;11.68;;;;;;;16.89;62.78;99630.09;4503304;31;20114;-84
2022/10/27 01:44:24;;;;;;;21.27;10.90;;;;;;;16.84;62.90;99621.56;4499856;31;20144;-84
2022/10/27 01:46:50;;;;;;;23.55;12.05;;;;;;;16.84;62.79;99618.88;4489327;31;20092;-84
2022/10/27 01:49:22;;;;;;;21.98;11.63;;;;;;;16.86;62.66;99620.50;4488546;31;20111;-84
2022/10/27 01:51:48;;;;;;;23.02;12.30;;;;;;;16.80;62.88;99620.03;4503186;31;20080;-84
2022/10/27 01:54:14;;;;;;;19.73;10.82;;;;;;;16.82;62.85;99626.97;4503062;31;20155;-84
2022/10/27 01:56:42;;;;;;;22.92;11.63;;;;;;;16.84;62.77;99629.53;4503149;31;20427;-86
2022/10/27 01:59:15;;;;;;;20.23;10.68;;;;;;;16.83;62.83;99625.19;4502998;31;20084;-86
2022/10/27 02:01:49;;;;;;;23.65;12.02;;;;;;;16.60;63.33;99630.19;4503169;31;20084;-86
2022/10/27 02:04:37;;;;;;;24.45;12.73;;;;;;;16.70;62.93;99628.59;4503107;31;20705;-87
2022/10/27 02:07:32;;;;;;;22.93;11.97;;;;;;;16.71;62.95;99635.66;4489100;31;20116;-86
2022/10/27 02:10:06;;;;;;;27.90;15.10;;;;;;;16.70;63.01;99639.25;4409822;32;20085;-87
2022/10/27 02:12:36;;;;;;;25.40;13.10;;;;;;;16.55;63.77;99628.78;4422883;32;20236;-87
2022/10/27 02:15:04;;;;;;;24.73;11.77;;;;;;;16.55;63.62;99634.94;4422827;32;20449;-86
2022/10/27 02:17:40;;;;;;;22.73;11.23;;;;;;;16.54;63.58;99635.06;4410087;32;20101;-86
2022/10/27 02:20:10;;;;;;;20.85;11.43;;;;;;;16.44;63.67;99629.50;4422754;32;20105;-88
2022/10/27 02:22:37;;;;;;;22.98;10.82;;;;;;;16.44;63.50;99624.19;4410061;32;20579;-88
2022/10/27 02:25:03;;;;;;;22.73;11.27;;;;;;;16.45;63.40;99636.50;4409973;32;20413;-89
2022/10/27 02:27:38;;;;;;;22.20;11.25;;;;;;;16.43;63.33;99630.44;4422774;32;20676;-89
2022/10/27 02:30:07;;;;;;;21.17;10.57;;;;;;;16.34;63.56;99628.37;4409845;32;20172;-87
2022/10/27 02:32:33;;;;;;;20.35;10.27;;;;;;;16.30;63.54;99638.34;4422895;32;20288;-88
2022/10/27 02:34:59;;;;;;;20.08;10.75;;;;;;;16.32;63.47;99639.09;4408746;32;20536;-88
2022/10/27 02:37:34;;;;;;;20.70;10.68;;;;;;;16.31;63.44;99638.25;4422922;32;20101;-88
2022/10/27 02:40:00;;;;;;;22.15;9.68;;;;;;;16.30;63.47;99641.88;4422712;32;20311;-89
2022/10/27 02:42:25;;;;;;;20.08;10.15;;;;;;;16.24;63.61;99644.06;4409720;32;20157;-86
2022/10/27 02:44:51;;;;;;;20.37;9.60;;;;;;;16.27;63.52;99642.06;4409760;32;20458;-84
2022/10/27 02:47:16;;;;;;;19.50;10.05;;;;;;;16.27;63.46;99642.06;4481153;31;20096;-84
2022/10/27 02:49:44;;;;;;;20.05;9.98;;;;;;;16.24;63.46;99639.59;4502338;31;20068;-86
2022/10/27 02:52:10;;;;;;;22.33;11.75;;;;;;;16.24;63.37;99636.09;4488231;31;20084;-86
2022/10/27 02:54:35;;;;;;;22.50;11.85;;;;;;;16.21;63.54;99644.28;4502508;31;20136;-86
2022/10/27 02:57:01;;;;;;;23.02;11.15;;;;;;;16.16;63.93;99641.06;4502621;31;20115;-88
2022/10/27 02:59:29;;;;;;;24.92;12.73;;;;;;;16.01;64.53;99642.87;4502544;31;20138;-88
2022/10/27 03:01:54;;;;;;;24.10;12.63;;;;;;;15.91;65.43;99646.09;4502675;31;20096;-85
2022/10/27 03:04:20;;;;;;;25.75;13.45;;;;;;;15.99;65.27;99640.31;4502297;31;20089;-84
2022/10/27 03:06:45;;;;;;;28.00;13.77;;;;;;;15.42;67.16;99642.97;4502425;31;20084;-83
2022/10/27 03:09:11;;;;;;;26.55;13.77;;;;;;;15.63;66.59;99644.31;4502181;31;20110;-84
2022/10/27 03:11:36;;;;;;;26.45;13.80;;;;;;;15.83;65.97;99652.88;4502189;31;20427;-83
2022/10/27 03:14:01;;;;;;;26.73;13.13;;;;;;;15.95;65.58;99649.44;4502439;31;20088;-86
2022/10/27 03:16:27;;;;;;;27.40;15.57;;;;;;;16.09;65.15;99643.25;4502371;31;20257;-86
2022/10/27 03:18:52;;;;;;;27.75;13.95;;;;;;;16.05;65.25;99639.06;4502281;31;20146;-87
2022/10/27 03:21:18;;;;;;;26.40;13.43;;;;;;;16.16;64.94;99647.22;4502275;31;20095;-87
2022/10/27 03:23:43;;;;;;;27.58;13.62;;;;;;;16.12;64.94;99654.53;4501940;31;20112;-86
2022/10/27 03:26:09;;;;;;;25.45;13.62;;;;;;;16.21;64.57;99647.78;4502331;31;20436;-86
2022/10/27 03:28:35;;;;;;;26.35;13.75;;;;;;;16.04;65.23;99653.31;4502091;31;20103;-86
2022/10/27 03:31:02;;;;;;;28.90;13.73;;;;;;;16.19;64.90;99656.81;4502061;31;20471;-85
2022/10/27 03:33:27;;;;;;;28.23;14.70;;;;;;;15.92;65.73;99666.44;4487865;31;20100;-86
2022/10/27 03:35:53;;;;;;;26.83;13.77;;;;;;;16.01;65.47;99662.34;4502184;31;20163;-89
2022/10/27 03:38:18;;;;;;;27.02;14.63;;;;;;;16.17;64.97;99661.34;4501977;31;20096;-89
2022/10/27 03:40:43;;;;;;;28.27;14.55;;;;;;;16.07;65.39;99659.31;4487687;31;20118;-89
2022/10/27 03:43:10;;;;;;;30.35;15.48;;;;;;;16.14;65.20;99656.25;4502009;31;20096;-90
2022/10/27 03:45:35;;;;;;;29.25;14.32;;;;;;;16.21;65.15;99666.41;4487963;31;20160;-90
2022/10/27 03:48:05;;;;;;;29.27;14.10;;;;;;;16.13;65.31;99663.38;4489654;31;20115;-88
2022/10/27 03:50:31;;;;;;;27.95;14.43;;;;;;;16.08;65.43;99671.63;4504084;31;20087;-88
2022/10/27 03:52:57;;;;;;;29.23;13.75;;;;;;;16.25;64.86;99665.25;4504159;31;20488;-88
2022/10/27 03:55:23;;;;;;;28.48;13.45;;;;;;;16.25;64.87;99667.06;4504209;31;20100;-88
2022/10/27 03:57:49;;;;;;;34.65;14.77;;;;;;;16.35;64.65;99664.66;4504113;31;20112;-88
2022/10/27 04:00:14;;;;;;;28.70;14.55;;;;;;;16.30;64.71;99664.94;4503923;31;20084;-88
2022/10/27 04:02:40;;;;;;;27.70;13.98;;;;;;;16.38;64.53;99669.75;4489375;31;20100;-88
2022/10/27 04:05:05;;;;;;;29.95;15.38;;;;;;;16.17;65.29;99670.22;4503794;31;20160;-89
2022/10/27 04:07:31;;;;;;;26.58;14.27;;;;;;;16.34;64.62;99658.50;4503782;31;20122;-88
2022/10/27 04:09:56;;;;;;;29.52;15.02;;;;;;;16.41;64.17;99664.25;4503816;31;20167;-89
2022/10/27 04:12:22;;;;;;;29.37;14.75;;;;;;;16.37;63.97;99670.72;4503869;31;20119;-89
2022/10/27 04:14:49;;;;;;;29.70;15.68;;;;;;;16.33;63.87;99669.22;4489360;31;20146;-87
2022/10/27 04:17:15;;;;;;;31.37;15.43;;;;;;;16.39;63.80;99675.00;4503785;31;20091;-87
2022/10/27 04:19:41;;;;;;;28.50;15.10;;;;;;;16.41;63.77;99673.09;4503734;31;20455;-86
2022/10/27 04:22:06;;;;;;;29.58;14.63;;;;;;;16.42;63.72;99679.28;4503852;31;20140;-87
2022/10/27 04:24:31;;;;;;;30.08;14.87;;;;;;;16.34;64.04;99677.12;4504000;31;20174;-85
2022/10/27 04:26:57;;;;;;;29.23;15.82;;;;;;;16.36;64.01;99682.31;4503990;31;20131;-88
2022/10/27 04:29:22;;;;;;;29.45;15.02;;;;;;;16.31;64.16;99686.13;4503566;31;20187;-89
2022/10/27 04:31:47;;;;;;;31.00;15.35;;;;;;;16.23;64.50;99680.44;4503939;31;20139;-86
2022/10/27 04:34:13;;;;;;;29.10;14.48;;;;;;;16.15;64.95;99682.75;4503903;31;20135;-86
2022/10/27 04:36:38;;;;;;;29.95;15.15;;;;;;;16.32;64.47;99684.31;4503671;31;20096;-86
2022/10/27 04:39:03;;;;;;;29.52;14.32;;;;;;;16.35;64.40;99686.78;4488842;31;20371;-87
2022/10/27 04:41:30;;;;;;;30.40;15.48;;;;;;;16.43;64.17;99697.78;4503561;31;20084;-86
2022/10/27 04:43:55;;;;;;;28.23;14.43;;;;;;;16.41;64.06;99696.16;4489224;31;20169;-87
2022/10/27 04:46:21;;;;;;;29.17;14.77;;;;;;;16.45;63.90;99695.03;4476052;31;20135;-86
2022/10/27 04:48:47;;;;;;;27.58;15.07;;;;;;;16.50;63.67;99692.94;4503617;31;20122;-87
2022/10/27 04:51:12;;;;;;;29.35;15.18;;;;;;;16.49;63.54;99692.06;4503497;31;20123;-86
2022/10/27 04:53:38;;;;;;;30.20;16.00;;;;;;;16.34;63.82;99697.50;4503450;31;20134;-83
2022/10/27 04:56:03;;;;;;;30.52;16.02;;;;;;;16.38;63.81;99694.56;4489644;31;20181;-84
2022/10/27 04:58:29;;;;;;;32.38;15.75;;;;;;;16.29;64.02;99700.47;4502200;31;20101;-86
2022/10/27 05:00:54;;;;;;;34.90;17.60;;;;;;;16.25;64.12;99706.94;4477056;32;20104;-86
2022/10/27 05:03:20;;;;;;;32.58;15.90;;;;;;;16.20;64.45;99709.03;4485828;32;20100;-86
2022/10/27 05:05:45;;;;;;;32.63;16.42;;;;;;;16.20;64.39;99711.69;4494755;31;20148;-86
2022/10/27 05:08:11;;;;;;;33.83;16.08;;;;;;;16.22;64.37;99709.78;4475276;31;20136;-87
2022/10/27 05:10:36;;;;;;;31.62;16.33;;;;;;;16.34;64.12;99710.81;4501102;31;20088;-87
2022/10/27 05:13:02;;;;;;;34.97;17.35;;;;;;;16.37;64.05;99708.81;4487384;31;20188;-87
2022/10/27 05:15:27;;;;;;;37.25;18.62;;;;;;;16.39;63.89;99706.91;4503452;31;20084;-87
2022/10/27 05:17:53;;;;;;;33.72;17.12;;;;;;;16.43;63.67;99712.88;4488875;31;20119;-88
2022/10/27 05:20:19;;;;;;;33.53;16.52;;;;;;;16.42;63.75;99719.16;4503098;31;20110;-88
2022/10/27 05:22:44;;;;;;;33.33;16.77;;;;;;;16.42;63.70;99714.69;4503267;31;20092;-88
2022/10/27 05:25:10;;;;;;;33.88;16.00;;;;;;;16.34;63.79;99717.00;4488608;31;20088;-88
2022/10/27 05:27:36;;;;;;;34.67;16.67;;;;;;;16.40;63.81;99726.37;4488862;31;20120;-89
2022/10/27 05:30:03;;;;;;;32.50;16.17;;;;;;;16.42;63.71;99719.16;4503101;31;20144;-87
2022/10/27 05:32:28;;;;;;;34.80;16.92;;;;;;;16.38;63.80;99722.94;4503207;31;20096;-93
2022/10/27 05:34:56;;;;;;;33.50;16.73;;;;;;;16.42;63.69;99724.50;4502995;31;20363;-89
2022/10/27 05:37:22;;;;;;;31.60;15.85;;;;;;;16.45;63.66;99730.44;4503324;31;20095;-91
2022/10/27 05:39:48;;;;;;;32.90;15.80;;;;;;;16.46;63.68;99726.84;4503214;31;20427;-90
2022/10/27 05:42:13;;;;;;;31.80;16.15;;;;;;;16.54;63.46;99739.66;4479007;32;20138;-88
2022/10/27 05:44:38;;;;;;;33.58;15.95;;;;;;;16.60;63.34;99741.91;4487338;32;20127;-88
2022/10/27 05:47:04;;;;;;;35.30;17.58;;;;;;;16.55;63.37;99743.16;4472913;32;20448;-89
2022/10/27 05:49:29;;;;;;;38.00;18.67;;;;;;;16.55;63.46;99741.34;4487285;32;20103;-90
2022/10/27 05:51:55;;;;;;;37.88;18.85;;;;;;;16.61;63.36;99743.63;4472947;32;20104;-88
2022/10/27 05:54:20;;;;;;;37.40;19.33;;;;;;;16.64;63.37;99742.56;4472855;32;20091;-88
2022/10/27 05:56:52;;;;;;;37.78;19.30;;;;;;;16.71;63.24;99743.91;4487028;32;20084;-89
2022/10/27 05:59:17;;;;;;;37.08;18.17;;;;;;;16.75;63.21;99745.41;4473022;32;20123;-82
2022/10/27 06:01:43;;;;;;;38.67;18.80;;;;;;;16.74;62.95;99742.84;4487436;32;20445;-83
2022/10/27 06:04:08;;;;;;;40.53;20.20;;;;;;;16.80;62.95;99745.09;4484801;32;80859;-84
2022/10/27 06:06:37;;;;;;;38.55;19.33;;;;;;;16.70;63.13;99753.66;4487417;32;20081;-84
2022/10/27 06:09:02;;;;;;;39.20;20.15;;;;;;;16.78;63.15;99758.47;4486964;32;20485;-83
2022/10/27 06:11:27;;;;;;;36.00;18.52;;;;;;;16.85;63.09;99759.00;4487303;31;20089;-84
2022/10/27 06:13:53;;;;;;;38.60;20.02;;;;;;;16.89;63.07;99757.84;4473096;32;20253;-84
2022/10/27 06:16:19;;;;;;;37.40;19.17;;;;;;;16.86;63.21;99766.88;4487294;32;20133;-83
2022/10/27 06:18:45;;;;;;;38.88;19.42;;;;;;;16.95;63.03;99767.22;4473082;32;20171;-84
2022/10/27 06:21:10;;;;;;;37.92;18.62;;;;;;;16.95;63.09;99772.56;4487447;32;20084;-85
2022/10/27 06:23:36;;;;;;;40.90;19.60;;;;;;;16.99;63.00;99777.56;4473099;32;20356;-84
2022/10/27 06:26:02;;;;;;;36.80;18.55;;;;;;;16.96;63.05;99774.25;4487286;32;20092;-83
2022/10/27 06:28:28;;;;;;;37.63;19.00;;;;;;;17.06;62.82;99770.88;4471165;32;20157;-84
2022/10/27 06:30:53;;;;;;;34.20;18.67;;;;;;;17.08;62.74;99779.63;4485211;32;20132;-84
2022/10/27 06:33:19;;;;;;;37.50;18.77;;;;;;;17.18;62.43;99779.03;4485102;32;20088;-84
2022/10/27 06:35:45;;;;;;;37.80;19.70;;;;;;;17.20;62.33;99787.78;4471326;32;20088;-84
2022/10/27 06:38:15;;;;;;;39.83;20.33;;;;;;;17.18;62.30;99795.84;4471420;32;20134;-84
2022/10/27 06:40:41;;;;;;;42.17;19.15;;;;;;;17.19;62.28;99788.72;4471992;32;20539;-84
2022/10/27 06:43:07;;;;;;;38.20;19.65;;;;;;;17.24;62.24;99791.94;4471963;32;20141;-84
2022/10/27 06:45:32;;;;;;;39.03;20.23;;;;;;;17.21;62.07;99793.00;4472597;32;20084;-84
2022/10/27 06:48:01;;;;;;;39.65;19.55;;;;;;;16.99;62.65;99796.19;4487074;32;20174;-84
2022/10/27 06:50:26;;;;;;;51.30;20.62;;;;;;;17.09;62.56;99799.09;4473111;32;20711;-84
2022/10/27 06:52:52;;;;;;;56.90;21.10;;;;;;;17.10;62.53;99803.50;4472762;32;20455;-84
2022/10/27 06:55:18;;;;;;;53.80;21.08;;;;;;;16.41;64.51;99815.84;4486798;32;20080;-84
2022/10/27 06:57:44;;;;;;;39.38;20.00;;;;;;;16.84;63.50;99802.50;4486778;32;20150;-84
2022/10/27 07:00:13;;;;;;;38.58;20.20;;;;;;;16.95;63.33;99809.81;4472608;32;20135;-84
2022/10/27 07:02:39;;;;;;;42.42;20.80;;;;;;;17.06;63.13;99815.31;4472802;32;20092;-84
2022/10/27 07:05:05;;;;;;;40.75;21.33;;;;;;;17.10;62.62;99814.16;4486592;32;20128;-84
2022/10/27 07:07:31;;;;;;;38.72;19.17;;;;;;;17.15;62.78;99812.00;4486656;32;20511;-84
2022/10/27 07:09:56;;;;;;;43.53;20.30;;;;;;;17.19;62.93;99818.87;4472215;32;20101;-84
2022/10/27 07:12:22;;;;;;;77.32;21.73;;;;;;;17.27;62.51;99819.22;4472304;32;20088;-84
2022/10/27 07:14:47;;;;;;;44.80;18.92;;;;;;;16.82;64.03;99818.56;4472205;32;20101;-84
2022/10/27 07:17:14;;;;;;;37.20;19.48;;;;;;;17.13;62.75;99818.41;4486541;32;20491;-84
2022/10/27 07:19:39;;;;;;;35.33;18.45;;;;;;;17.29;62.27;99825.28;4486732;32;20100;-84
2022/10/27 07:22:05;;;;;;;41.00;20.12;;;;;;;17.35;62.26;99825.84;4485705;32;20149;-84
2022/10/27 07:24:30;;;;;;;41.03;20.30;;;;;;;17.34;62.14;99835.63;4486399;32;20137;-84
2022/10/27 07:26:58;;;;;;;36.88;18.73;;;;;;;16.47;64.18;99837.59;4472115;32;20088;-84
2022/10/27 07:29:26;;;;;;;38.08;19.58;;;;;;;17.07;62.91;99838.28;4472377;32;20113;-84
2022/10/27 07:31:52;;;;;;;35.42;18.55;;;;;;;17.34;62.30;99840.13;4459242;32;20122;-84
2022/10/27 07:34:19;;;;;;;36.35;18.12;;;;;;;17.48;61.70;99840.91;4472064;32;20368;-84
2022/10/27 07:36:45;;;;;;;33.78;17.58;;;;;;;17.56;61.50;99844.84;4486387;32;20112;-84
2022/10/27 07:39:10;;;;;;;37.45;17.95;;;;;;;17.48;61.44;99848.03;4486349;32;20111;-84
2022/10/27 07:41:36;;;;;;;34.58;17.58;;;;;;;17.51;61.00;99855.00;4486343;32;20110;-84
2022/10/27 07:44:01;;;;;;;119.25;22.95;;;;;;;17.53;61.02;99861.06;4471965;32;20088;-84
2022/10/27 07:46:28;;;;;;;36.78;19.10;;;;;;;17.12;61.99;99869.97;4471913;32;20112;-84
2022/10/27 07:48:53;;;;;;;36.13;18.40;;;;;;;17.34;61.58;99867.59;4471847;32;20108;-84
2022/10/27 07:51:19;;;;;;;38.33;19.12;;;;;;;17.48;61.16;99867.56;4486190;32;20144;-84
2022/10/27 07:53:44;;;;;;;35.70;19.00;;;;;;;17.53;61.20;99869.91;4486054;32;20438;-84
2022/10/27 07:56:10;;;;;;;38.92;21.12;;;;;;;17.61;61.21;99867.59;4486011;32;20093;-84
2022/10/27 07:58:35;;;;;;;39.00;20.20;;;;;;;17.13;62.96;99875.16;4471655;32;20399;-84
2022/10/27 08:01:03;;;;;;;40.80;21.75;;;;;;;17.52;61.71;99868.22;4485768;32;20113;-84
2022/10/27 08:03:30;;;;;;;43.08;21.27;;;;;;;17.69;61.19;99878.59;4486010;32;20179;-84
2022/10/27 08:05:59;;;;;;;40.12;20.20;;;;;;;17.68;61.04;99881.38;4485970;32;20850;-84
2022/10/27 08:08:24;;;;;;;39.75;20.12;;;;;;;17.78;60.84;99890.44;4471509;32;20177;-84
2022/10/27 08:10:50;;;;;;;37.03;19.90;;;;;;;17.81;60.66;99894.72;4485654;32;20144;-84
2022/10/27 08:13:16;;;;;;;41.13;19.90;;;;;;;17.80;60.67;99901.00;4458492;32;20463;-84
2022/10/27 08:15:42;;;;;;;39.67;20.80;;;;;;;17.96;60.10;99904.38;4458718;32;20104;-84
2022/10/27 08:18:09;;;;;;;37.20;19.85;;;;;;;17.95;60.21;99896.50;4485940;32;20119;-84
2022/10/27 08:20:38;;;;;;;39.38;20.58;;;;;;;18.06;59.85;99899.31;4471719;32;20088;-84
2022/10/27 08:23:05;;;;;;;52.70;20.98;;;;;;;18.14;59.52;99902.28;4471677;32;20079;-84
2022/10/27 08:25:31;;;;;;;38.17;19.95;;;;;;;18.13;59.37;99903.25;4471641;32;20108;-84
2022/10/27 08:27:57;;;;;;;40.12;20.37;;;;;;;18.22;59.12;99901.78;4485939;32;20135;-84
2022/10/27 08:30:25;;;;;;;47.75;20.98;;;;;;;17.96;59.59;99907.03;4471552;32;20076;-84
2022/10/27 08:32:55;;;;;;;60.85;21.80;;;;;;;17.87;60.00;99908.53;4487190;32;20615;-84
2022/10/27 08:35:20;;;;;;;40.30;20.75;;;;;;;17.78;60.35;99911.78;4473937;32;20108;-84
2022/10/27 08:37:46;;;;;;;41.72;21.80;;;;;;;18.00;59.72;99913.03;4488055;32;20119;-84
2022/10/27 08:40:11;;;;;;;42.28;21.23;;;;;;;18.07;59.82;99914.31;4488040;32;20111;-84
2022/10/27 08:42:47;;;;;;;45.80;22.17;;;;;;;17.70;61.36;99911.44;4487950;32;20076;-84
2022/10/27 08:45:25;;;;;;;44.35;21.92;;;;;;;17.99;60.21;99908.66;4487808;32;20134;-84
2022/10/27 08:47:54;;;;;;;42.83;21.77;;;;;;;18.20;59.24;99911.69;4487858;32;20089;-84
2022/10/27 08:50:22;;;;;;;39.78;20.83;;;;;;;18.16;59.43;99908.38;4460448;32;20129;-84
2022/10/27 08:52:50;;;;;;;40.15;21.58;;;;;;;18.20;59.43;99904.53;4473438;32;20107;-84
2022/10/27 08:55:22;;;;;;;41.20;21.08;;;;;;;18.15;59.59;99905.81;4473522;32;20127;-84
2022/10/27 08:58:12;;;;;;;44.28;22.10;;;;;;;18.03;60.14;99897.69;4473755;32;20745;-84
2022/10/27 09:00:48;;;;;;;41.20;22.35;;;;;;;18.11;59.82;99905.16;4460447;32;20159;-84
2022/10/27 09:03:32;;;;;;;39.47;20.62;;;;;;;18.06;59.70;99901.97;4460273;32;20474;-84
2022/10/27 09:06:22;;;;;;;39.72;21.42;;;;;;;18.13;59.61;99899.72;4487603;32;20092;-84
2022/10/27 09:08:59;;;;;;;38.05;20.02;;;;;;;18.34;59.30;99908.06;4487875;32;20127;-84
2022/10/27 09:11:39;;;;;;;38.33;20.47;;;;;;;18.15;59.58;99903.16;4487415;32;20587;-84
2022/10/27 09:14:30;;;;;;;34.35;18.50;;;;;;;18.32;59.44;99899.31;4487602;32;20102;-84
2022/10/27 09:17:27;;;;;;;36.17;20.37;;;;;;;18.47;58.97;99901.78;4472185;32;20392;-84
2022/10/27 09:20:05;;;;;;;42.17;19.98;;;;;;;17.48;61.86;99907.53;4472330;32;20104;-84
2022/10/27 09:22:33;;;;;;;37.22;18.92;;;;;;;18.09;60.22;99899.06;4487865;32;20092;-84
2022/10/27 09:25:04;;;;;;;37.00;19.87;;;;;;;18.40;59.37;99908.50;4473605;32;20096;-84
2022/10/27 09:27:29;;;;;;;35.97;19.08;;;;;;;18.43;59.07;99908.28;4473407;32;20142;-84
2022/10/27 09:30:00;;;;;;;33.88;17.75;;;;;;;18.56;58.68;99912.75;4473191;32;20447;-82
2022/10/27 09:32:26;;;;;;;35.55;18.62;;;;;;;18.56;58.74;99913.62;4473482;32;20168;-84
2022/10/27 09:35:05;;;;;;;33.50;18.05;;;;;;;18.46;58.74;99910.72;4473168;32;20092;-82
2022/10/27 09:37:32;;;;;;;34.65;18.65;;;;;;;18.64;58.35;99911.28;4473782;32;20123;-82
2022/10/27 09:39:58;;;;;;;35.58;18.10;;;;;;;18.74;58.08;99914.16;4473178;32;20135;-83
2022/10/27 09:42:27;;;;;;;37.63;20.58;;;;;;;18.76;58.02;99911.38;4473281;32;20119;-82
2022/10/27 09:45:00;;;;;;;35.55;19.55;;;;;;;18.62;58.19;99907.88;4486907;32;20134;-82
2022/10/27 09:47:30;;;;;;;34.15;18.50;;;;;;;18.54;58.61;99906.69;4473271;32;20472;-82
2022/10/27 09:49:56;;;;;;;35.95;18.35;;;;;;;18.78;58.07;99912.13;4473050;32;20105;-82
2022/10/27 09:52:24;;;;;;;35.85;19.20;;;;;;;18.90;57.62;99910.44;4473089;32;20153;-82
2022/10/27 09:54:52;;;;;;;33.42;18.35;;;;;;;18.96;57.48;99910.84;4472943;32;20080;-82
2022/10/27 09:57:19;;;;;;;33.17;17.98;;;;;;;18.97;57.50;99917.06;4473000;32;20467;-82
2022/10/27 09:59:57;;;;;;;34.97;18.33;;;;;;;19.11;57.03;99908.03;4487482;32;20125;-82
2022/10/27 10:02:27;;;;;;;35.05;19.33;;;;;;;19.11;56.98;99905.38;4487401;32;20110;-82
2022/10/27 10:04:52;;;;;;;34.83;19.30;;;;;;;19.17;56.79;99904.91;4473284;32;20087;-82
2022/10/27 10:07:30;;;;;;;33.47;17.12;;;;;;;19.22;56.76;99910.78;4472904;32;20500;-82
2022/10/27 10:10:04;;;;;;;32.28;17.77;;;;;;;19.33;56.39;99915.34;4472860;32;20100;-82
2022/10/27 10:12:30;;;;;;;30.77;17.48;;;;;;;19.39;56.27;99914.88;4487273;32;20164;-82
2022/10/27 10:15:11;;;;;;;32.17;18.02;;;;;;;19.37;55.94;99917.69;4460231;32;20341;-82
2022/10/27 10:17:39;;;;;;;32.42;17.42;;;;;;;19.23;56.09;99917.81;4472862;32;20176;-82
2022/10/27 10:20:08;;;;;;;30.20;17.27;;;;;;;19.22;56.37;99916.13;4459861;32;20112;-82
2022/10/27 10:22:34;;;;;;;32.83;17.12;;;;;;;19.30;56.33;99915.59;4473304;32;20119;-82
2022/10/27 10:25:22;;;;;;;32.50;17.73;;;;;;;19.33;56.27;99913.50;4487160;32;20458;-82
2022/10/27 10:28:05;;;;;;;31.55;17.48;;;;;;;19.40;55.99;99909.44;4486923;32;20114;-82
2022/10/27 10:30:36;;;;;;;31.75;17.65;;;;;;;19.61;55.46;99908.81;4472878;32;20122;-82
2022/10/27 10:33:03;;;;;;;30.77;17.05;;;;;;;19.62;55.51;99916.75;4472870;32;20485;-82
2022/10/27 10:35:49;;;;;;;30.12;17.40;;;;;;;19.79;55.02;99917.31;4473097;32;20085;-82
2022/10/27 10:38:28;;;;;;;31.70;17.02;;;;;;;19.66;55.29;99914.66;4472888;32;20126;-82
2022/10/27 10:41:02;;;;;;;32.60;18.50;;;;;;;19.78;54.96;99916.47;4472692;32;20099;-82
2022/10/27 10:43:30;;;;;;;30.52;17.23;;;;;;;19.43;55.42;99917.25;4472748;32;20080;-82
2022/10/27 10:45:56;;;;;;;33.25;18.62;;;;;;;19.80;54.77;99913.69;4472687;32;20106;-82
2022/10/27 10:48:29;;;;;;;31.33;18.15;;;;;;;19.76;54.67;99921.09;4487026;32;20096;-82
2022/10/27 10:50:55;;;;;;;34.38;18.62;;;;;;;19.88;54.28;99913.97;4473006;32;20493;-82
2022/10/27 10:53:31;;;;;;;33.53;18.83;;;;;;;19.87;54.38;99917.59;4459779;32;20084;-82
2022/10/27 10:56:00;;;;;;;33.40;18.27;;;;;;;19.94;54.13;99912.66;4471634;32;20105;-82
2022/10/27 10:58:29;;;;;;;33.40;17.73;;;;;;;20.02;54.05;99908.41;4487058;32;20119;-82
2022/10/27 11:00:57;;;;;;;34.78;18.87;;;;;;;20.12;53.87;99905.88;4472974;32;20099;-82
2022/10/27 11:03:24;;;;;;;34.15;18.77;;;;;;;20.21;53.64;99901.66;4472479;32;20193;-82
2022/10/27 11:06:02;;;;;;;33.95;18.27;;;;;;;20.18;53.55;99902.72;4472484;32;20111;-82
2022/10/27 11:08:40;;;;;;;33.08;18.35;;;;;;;20.09;53.86;99892.75;4486700;32;20241;-84
2022/10/27 11:11:15;;;;;;;33.75;19.33;;;;;;;20.30;53.66;99905.44;4472396;32;20164;-84
2022/10/27 11:14:10;;;;;;;36.35;19.67;;;;;;;20.22;53.57;99908.69;4486799;32;20104;-82
2022/10/27 11:16:46;;;;;;;35.38;20.15;;;;;;;19.71;54.69;99911.66;4484771;32;20167;-82
2022/10/27 11:19:16;;;;;;;35.67;19.75;;;;;;;19.93;54.35;99909.09;4459454;32;20186;-82
2022/10/27 11:22:06;;;;;;;34.13;19.60;;;;;;;20.17;53.87;99900.19;4459662;32;20450;-82
2022/10/27 11:24:49;;;;;;;36.60;19.17;;;;;;;20.37;53.34;99902.16;4476939;32;20092;-82